Time;durP1;ratioP1;P1;durP2;ratioP2;P2;SDS_P1;SDS_P2;PMS_P1;PMS_P2;Temp;Humidity;BMP_temperature;BMP_pressure;BME280_temperature;BME280_humidity;BME280_pressure;Samples;Min_cycle;Max_cycle;Signal;HPM_P1;HPM_P2
2023/04/20 00:00:16;;;;;;;19.27;10.15;;;;;;;9.44;36.69;102168.38;5095074;28;20193;-43
2023/04/20 00:02:42;;;;;;;17.38;9.82;;;;;;;9.38;36.97;102163.91;5094927;28;20051;-43
2023/04/20 00:05:09;;;;;;;17.67;10.50;;;;;;;9.45;37.32;102170.84;5094752;28;20064;-44
2023/04/20 00:07:35;;;;;;;17.20;9.90;;;;;;;9.39;36.30;102165.59;5095097;28;20043;-44
2023/04/20 00:10:02;;;;;;;15.70;9.57;;;;;;;9.32;36.41;102158.34;5094913;28;20343;-44
2023/04/20 00:12:27;;;;;;;15.75;9.68;;;;;;;9.30;36.36;102160.56;5094927;28;20024;-45
2023/04/20 00:14:53;;;;;;;17.08;9.90;;;;;;;9.34;37.92;102155.34;5094575;28;20042;-45
2023/04/20 00:17:18;;;;;;;17.30;9.80;;;;;;;9.30;36.94;102151.44;5094612;28;20039;-44
2023/04/20 00:19:43;;;;;;;16.83;10.20;;;;;;;9.21;36.23;102132.59;5094593;28;20086;-44
2023/04/20 00:22:09;;;;;;;17.10;9.63;;;;;;;9.21;36.82;102138.13;5093532;28;20036;-44
2023/04/20 00:24:35;;;;;;;17.50;10.70;;;;;;;9.15;36.40;102128.16;5094591;28;20024;-44
2023/04/20 00:27:00;;;;;;;17.13;9.98;;;;;;;9.17;38.44;102131.44;5094078;28;20168;-43
2023/04/20 00:29:26;;;;;;;16.45;9.88;;;;;;;9.19;38.22;102126.50;5092947;28;20228;-46
2023/04/20 00:31:51;;;;;;;16.58;10.05;;;;;;;9.15;38.90;102124.53;5094426;28;20024;-46
2023/04/20 00:34:16;;;;;;;15.05;9.70;;;;;;;9.12;38.06;102116.78;5072408;28;20033;-44
2023/04/20 00:36:42;;;;;;;17.42;9.38;;;;;;;9.08;37.84;102116.47;5074228;28;20017;-45
2023/04/20 00:39:07;;;;;;;14.23;9.40;;;;;;;9.10;37.64;102119.81;5078418;28;20032;-43
2023/04/20 00:41:32;;;;;;;16.30;10.13;;;;;;;9.03;37.19;102111.75;5094043;28;20105;-43
2023/04/20 00:43:58;;;;;;;16.65;9.20;;;;;;;9.07;38.07;102111.22;5092986;28;20028;-46
2023/04/20 00:46:23;;;;;;;16.20;9.85;;;;;;;9.05;37.78;102109.56;5093866;28;20031;-44
2023/04/20 00:48:53;;;;;;;17.75;9.75;;;;;;;8.98;37.81;102106.22;5093934;28;20040;-45
2023/04/20 00:51:20;;;;;;;16.30;10.00;;;;;;;8.89;37.49;102113.31;5094346;28;20102;-45
2023/04/20 00:53:45;;;;;;;18.38;10.05;;;;;;;8.83;37.94;102095.06;5090017;28;20031;-44
2023/04/20 00:56:12;;;;;;;17.75;10.48;;;;;;;8.76;38.90;102097.19;5093999;28;20401;-43
2023/04/20 00:58:37;;;;;;;17.38;10.02;;;;;;;8.74;38.56;102092.75;5094030;28;20123;-43
2023/04/20 01:01:03;;;;;;;18.58;10.32;;;;;;;8.64;38.31;102073.38;5093957;28;20143;-43
2023/04/20 01:03:29;;;;;;;17.20;10.40;;;;;;;8.63;38.82;102076.38;5093622;28;20035;-43
2023/04/20 01:05:54;;;;;;;16.42;9.90;;;;;;;8.55;40.20;102072.16;5093485;28;20020;-44
2023/04/20 01:08:19;;;;;;;17.05;10.02;;;;;;;8.48;38.56;102071.56;5094140;28;20028;-44
2023/04/20 01:10:45;;;;;;;16.67;9.60;;;;;;;8.45;39.87;102056.34;5093670;28;20028;-43
2023/04/20 01:13:10;;;;;;;16.63;9.57;;;;;;;8.43;41.10;102058.53;5093777;28;20359;-45
2023/04/20 01:15:36;;;;;;;15.45;9.70;;;;;;;8.39;40.45;102057.41;5077230;28;20040;-43
2023/04/20 01:18:02;;;;;;;17.73;10.15;;;;;;;8.31;40.67;102036.66;5073424;28;20020;-43
2023/04/20 01:20:27;;;;;;;18.30;9.73;;;;;;;8.32;39.95;102038.31;5086461;28;20032;-43
2023/04/20 01:22:53;;;;;;;17.27;9.80;;;;;;;8.27;40.03;102038.25;5093470;28;20032;-42
2023/04/20 01:25:19;;;;;;;16.77;10.20;;;;;;;8.25;40.64;102034.94;5093444;28;20043;-43
2023/04/20 01:27:44;;;;;;;15.25;9.57;;;;;;;8.18;40.63;102026.88;5093709;28;20028;-44
2023/04/20 01:30:11;;;;;;;17.00;10.00;;;;;;;8.17;40.66;102027.97;5093418;28;20085;-44
2023/04/20 01:32:37;;;;;;;17.67;9.70;;;;;;;8.14;42.63;102034.00;5093418;28;20430;-46
2023/04/20 01:35:03;;;;;;;16.02;9.88;;;;;;;8.11;41.72;102018.81;5093217;28;20035;-46
2023/04/20 01:37:28;;;;;;;16.50;9.25;;;;;;;8.08;41.52;102015.75;5093270;28;20042;-45
2023/04/20 01:39:54;;;;;;;18.45;9.60;;;;;;;8.12;42.20;102014.97;5093221;28;20533;-46
2023/04/20 01:42:20;;;;;;;16.77;9.50;;;;;;;8.03;40.63;102004.69;5093371;28;20497;-43
2023/04/20 01:44:45;;;;;;;16.75;9.52;;;;;;;8.03;42.12;102002.75;5093405;28;20036;-45
2023/04/20 01:47:10;;;;;;;17.60;9.95;;;;;;;7.85;41.05;101998.44;5093057;28;20030;-43
2023/04/20 01:49:36;;;;;;;17.30;9.30;;;;;;;7.38;41.37;101994.31;5088870;28;20028;-43
2023/04/20 01:52:01;;;;;;;17.15;9.27;;;;;;;7.31;42.85;101997.25;5093123;28;20059;-43
2023/04/20 01:54:26;;;;;;;14.95;9.10;;;;;;;7.33;43.01;101992.34;5092604;28;20389;-43
2023/04/20 01:56:51;;;;;;;17.85;9.60;;;;;;;7.44;43.98;101986.97;5091571;28;20028;-45
2023/04/20 01:59:17;;;;;;;16.55;9.45;;;;;;;7.50;44.12;101985.94;5091119;28;20020;-44
2023/04/20 02:01:42;;;;;;;15.38;9.45;;;;;;;7.52;43.54;101983.75;5072411;28;20032;-44
2023/04/20 02:04:07;;;;;;;16.42;9.57;;;;;;;7.53;43.16;101985.41;5072420;28;20062;-44
2023/04/20 02:06:33;;;;;;;15.88;9.23;;;;;;;7.58;43.43;101982.72;5092597;28;20404;-44
2023/04/20 02:08:58;;;;;;;14.15;9.10;;;;;;;7.63;44.54;101981.94;5092612;28;20477;-43
2023/04/20 02:11:23;;;;;;;15.30;9.35;;;;;;;7.64;43.71;101972.59;5092574;28;20036;-44
2023/04/20 02:13:48;;;;;;;20.20;9.63;;;;;;;7.61;43.21;101978.59;5092805;28;20499;-43
2023/04/20 02:16:14;;;;;;;15.75;9.48;;;;;;;7.61;42.87;101973.94;5092521;28;20032;-43
2023/04/20 02:18:40;;;;;;;16.45;9.70;;;;;;;7.58;43.73;101966.19;5092698;28;20035;-44
2023/04/20 02:21:05;;;;;;;16.88;9.93;;;;;;;7.54;43.36;101967.81;5092520;28;20034;-42
2023/04/20 02:23:30;;;;;;;17.40;9.82;;;;;;;7.52;45.01;101970.00;5091076;28;20032;-44
2023/04/20 02:25:55;;;;;;;16.88;10.30;;;;;;;7.49;44.00;101971.34;5092396;28;20036;-44
2023/04/20 02:28:21;;;;;;;18.90;10.10;;;;;;;7.48;44.96;101964.16;5092475;28;20126;-43
2023/04/20 02:30:46;;;;;;;16.27;9.30;;;;;;;7.58;45.73;101963.44;5092320;28;20119;-44
2023/04/20 02:33:11;;;;;;;18.27;10.10;;;;;;;7.53;44.67;101960.63;5092191;28;20071;-43
2023/04/20 02:35:37;;;;;;;16.38;9.60;;;;;;;7.58;46.07;101962.63;5092170;28;20123;-44
2023/04/20 02:38:02;;;;;;;18.63;9.80;;;;;;;7.60;45.96;101957.69;5092406;28;20032;-43
2023/04/20 02:40:28;;;;;;;15.88;9.60;;;;;;;7.55;46.21;101954.88;5091986;28;20649;-44
2023/04/20 02:42:53;;;;;;;16.42;9.70;;;;;;;7.56;46.41;101940.81;5092228;28;20408;-44
2023/04/20 02:45:19;;;;;;;16.30;9.98;;;;;;;7.59;46.49;101942.25;5090229;28;20073;-43
2023/04/20 02:47:45;;;;;;;18.15;9.60;;;;;;;7.52;46.64;101933.34;5089941;28;20038;-43
2023/04/20 02:50:11;;;;;;;16.58;9.90;;;;;;;7.31;46.96;101903.66;5092135;28;20050;-46
2023/04/20 02:52:36;;;;;;;16.67;10.05;;;;;;;7.44;46.72;101926.41;5092116;28;20481;-43
2023/04/20 02:55:01;;;;;;;15.38;9.38;;;;;;;7.43;47.09;101930.22;5091825;28;20061;-47
2023/04/20 02:57:27;;;;;;;17.17;9.65;;;;;;;7.40;48.75;101933.50;5091760;28;20061;-43
2023/04/20 02:59:52;;;;;;;18.70;10.18;;;;;;;7.39;48.75;101931.81;5091702;28;20093;-44
2023/04/20 03:02:17;;;;;;;16.90;10.20;;;;;;;7.41;49.40;101919.50;5091760;28;20028;-43
2023/04/20 03:04:43;;;;;;;18.10;10.27;;;;;;;7.43;48.63;101928.28;5091790;28;20775;-42
2023/04/20 03:07:08;;;;;;;17.00;9.77;;;;;;;7.44;49.33;101923.63;5091091;28;20110;-43
2023/04/20 03:09:35;;;;;;;16.40;10.07;;;;;;;7.41;49.06;101918.63;5090178;28;20502;-44
2023/04/20 03:12:01;;;;;;;17.17;10.05;;;;;;;7.37;49.55;101918.31;5071098;28;20025;-44
2023/04/20 03:14:27;;;;;;;16.15;9.60;;;;;;;7.40;49.74;101912.31;5071282;28;20085;-43
2023/04/20 03:16:52;;;;;;;16.73;10.18;;;;;;;7.44;50.21;101912.63;5090106;28;20073;-44
2023/04/20 03:19:18;;;;;;;18.83;10.02;;;;;;;7.47;50.70;101910.19;5091649;28;20485;-43
2023/04/20 03:21:44;;;;;;;17.90;10.00;;;;;;;7.45;49.98;101904.09;5091607;28;20493;-44
2023/04/20 03:24:09;;;;;;;17.55;10.18;;;;;;;7.41;50.40;101904.88;5091400;28;20032;-43
2023/04/20 03:26:35;;;;;;;17.80;10.20;;;;;;;7.44;51.06;101909.88;5091623;28;20043;-45
2023/04/20 03:29:00;;;;;;;18.38;10.38;;;;;;;7.42;51.43;101907.34;5090175;28;20399;-44
2023/04/20 03:31:26;;;;;;;18.52;10.48;;;;;;;7.47;51.28;101903.81;5091442;28;20027;-45
2023/04/20 03:33:51;;;;;;;19.13;9.82;;;;;;;7.51;50.96;101893.16;5089936;28;20035;-42
2023/04/20 03:36:16;;;;;;;16.90;10.07;;;;;;;7.55;51.91;101892.38;5091479;28;20024;-43
2023/04/20 03:38:42;;;;;;;18.40;10.73;;;;;;;7.52;51.71;101889.28;5091436;28;20111;-43
2023/04/20 03:41:07;;;;;;;18.77;10.40;;;;;;;7.59;52.66;101889.94;5087477;28;20052;-43
2023/04/20 03:43:33;;;;;;;16.98;10.05;;;;;;;7.60;52.32;101878.63;5091424;28;20031;-43
2023/04/20 03:45:58;;;;;;;18.42;10.48;;;;;;;7.65;52.10;101883.38;5091180;28;20126;-42
2023/04/20 03:48:23;;;;;;;16.55;9.93;;;;;;;7.68;52.57;101882.00;5091289;28;20478;-42
2023/04/20 03:50:49;;;;;;;17.50;10.20;;;;;;;7.70;52.74;101886.16;5091395;28;20035;-44
2023/04/20 03:53:14;;;;;;;18.55;10.50;;;;;;;7.70;52.18;101882.59;5091384;28;20122;-42
2023/04/20 03:55:40;;;;;;;16.85;10.10;;;;;;;7.71;53.01;101887.81;5091104;28;20524;-42
2023/04/20 03:58:05;;;;;;;17.13;10.40;;;;;;;7.68;52.81;101874.59;5091046;28;20090;-44
2023/04/20 04:00:31;;;;;;;17.98;10.00;;;;;;;7.75;53.53;101879.88;5091003;28;20028;-44
2023/04/20 04:02:57;;;;;;;17.75;11.20;;;;;;;7.76;52.89;101874.13;5091368;28;20074;-43
2023/04/20 04:05:23;;;;;;;18.20;10.60;;;;;;;7.73;53.21;101871.06;5091080;28;20024;-44
2023/04/20 04:07:49;;;;;;;17.92;10.27;;;;;;;7.88;53.65;101881.38;5091296;28;20032;-43
2023/04/20 04:10:16;;;;;;;17.58;10.57;;;;;;;7.90;53.30;101869.00;5091109;28;20024;-43
2023/04/20 04:12:41;;;;;;;19.75;10.93;;;;;;;7.97;54.80;101864.09;5091210;28;20111;-44
2023/04/20 04:15:07;;;;;;;19.15;10.60;;;;;;;7.98;54.43;101864.94;5091062;28;20115;-43
2023/04/20 04:17:33;;;;;;;16.65;10.52;;;;;;;7.98;54.38;101853.91;5091669;28;20028;-43
2023/04/20 04:19:58;;;;;;;19.13;11.07;;;;;;;8.08;54.63;101853.16;5095256;28;20043;-43
2023/04/20 04:22:23;;;;;;;20.08;11.13;;;;;;;8.19;54.69;101851.28;5095251;28;20141;-44
2023/04/20 04:24:48;;;;;;;18.02;10.93;;;;;;;8.20;54.30;101841.91;5095522;28;20032;-43
2023/04/20 04:27:14;;;;;;;18.55;10.75;;;;;;;8.25;54.49;101844.72;5095217;28;20032;-43
2023/04/20 04:29:40;;;;;;;18.77;10.93;;;;;;;8.34;54.81;101840.38;5095269;28;20471;-43
2023/04/20 04:32:06;;;;;;;19.15;10.20;;;;;;;8.35;54.88;101824.66;5094826;28;20039;-46
2023/04/20 04:34:33;;;;;;;17.20;10.15;;;;;;;8.34;54.33;101828.50;5093217;28;20022;-44
2023/04/20 04:36:59;;;;;;;17.85;10.23;;;;;;;8.26;54.64;101830.66;5091000;28;20746;-45
2023/04/20 04:39:26;;;;;;;17.98;10.30;;;;;;;8.23;55.31;101822.09;5094659;28;20052;-46
2023/04/20 04:41:51;;;;;;;18.27;10.75;;;;;;;8.29;55.46;101815.50;5094511;28;20028;-44
2023/04/20 04:44:17;;;;;;;17.60;11.13;;;;;;;8.30;55.68;101822.69;5094416;28;20027;-44
2023/04/20 04:46:46;;;;;;;19.27;11.20;;;;;;;8.34;55.17;101825.72;5094303;28;20488;-43
2023/04/20 04:49:11;;;;;;;17.60;10.65;;;;;;;8.36;55.48;101812.53;5093968;28;20093;-43
2023/04/20 04:51:37;;;;;;;17.60;11.02;;;;;;;8.42;55.10;101825.22;5094431;28;20063;-45
2023/04/20 04:54:02;;;;;;;19.02;10.35;;;;;;;8.46;54.84;101812.56;5094396;28;20489;-44
2023/04/20 04:56:28;;;;;;;18.67;10.77;;;;;;;8.49;54.85;101808.47;5094151;28;20597;-43
2023/04/20 04:58:53;;;;;;;18.83;10.80;;;;;;;8.49;54.84;101816.75;5094040;28;20035;-44
2023/04/20 05:01:19;;;;;;;17.33;10.60;;;;;;;8.50;54.52;101822.00;5093781;28;20028;-46
2023/04/20 05:03:45;;;;;;;17.42;10.50;;;;;;;8.55;54.67;101822.03;5094290;28;20114;-45
2023/04/20 05:06:10;;;;;;;17.27;10.23;;;;;;;8.64;55.16;101816.00;5093642;28;20103;-43
2023/04/20 05:08:35;;;;;;;18.50;10.55;;;;;;;8.66;54.82;101813.81;5093897;28;20028;-44
2023/04/20 05:11:01;;;;;;;18.13;10.73;;;;;;;8.64;54.33;101807.72;5093675;28;20051;-42
2023/04/20 05:13:26;;;;;;;18.92;10.50;;;;;;;8.61;54.66;101806.34;5093706;28;20043;-44
2023/04/20 05:15:51;;;;;;;18.23;10.93;;;;;;;8.64;54.69;101802.19;5093725;28;20046;-42
2023/04/20 05:18:16;;;;;;;17.95;10.55;;;;;;;8.64;54.90;101805.81;5093732;28;20123;-46
2023/04/20 05:20:42;;;;;;;17.88;10.43;;;;;;;8.67;55.47;101819.03;5093344;28;20035;-43
2023/04/20 05:23:07;;;;;;;19.02;11.15;;;;;;;8.64;54.83;101808.56;5093277;28;20031;-43
2023/04/20 05:25:33;;;;;;;18.88;10.85;;;;;;;8.68;55.17;101812.44;5092649;28;20586;-42
2023/04/20 05:27:59;;;;;;;18.42;10.70;;;;;;;8.66;55.35;101800.81;5091586;28;20065;-43
2023/04/20 05:30:24;;;;;;;18.60;10.60;;;;;;;8.66;55.48;101817.38;5092539;28;20043;-43
2023/04/20 05:32:50;;;;;;;19.80;10.95;;;;;;;8.62;55.20;101812.66;5070316;28;20370;-42
2023/04/20 05:35:15;;;;;;;17.77;10.73;;;;;;;8.63;55.24;101804.16;5073468;28;20028;-41
2023/04/20 05:37:40;;;;;;;20.75;11.05;;;;;;;8.67;55.72;101796.97;5089746;28;20484;-42
2023/04/20 05:40:08;;;;;;;19.52;10.00;;;;;;;8.73;56.12;101806.94;5093029;28;20515;-41
2023/04/20 05:42:33;;;;;;;19.35;11.00;;;;;;;8.62;55.08;101796.97;5092929;28;20157;-42
2023/04/20 05:44:59;;;;;;;19.02;10.57;;;;;;;8.46;56.25;101785.00;5093201;28;20030;-43
2023/04/20 05:47:26;;;;;;;17.63;10.15;;;;;;;8.45;57.39;101790.78;5093142;28;20496;-44
2023/04/20 05:49:51;;;;;;;19.55;10.32;;;;;;;8.44;57.34;101784.44;5093164;28;20040;-43
2023/04/20 05:52:16;;;;;;;18.98;10.82;;;;;;;8.47;57.27;101800.47;5093066;28;20054;-43
2023/04/20 05:54:42;;;;;;;19.52;10.45;;;;;;;8.47;56.76;101794.09;5093016;28;20425;-43
2023/04/20 05:57:07;;;;;;;18.92;10.20;;;;;;;8.39;57.23;101795.44;5092834;28;20055;-43
2023/04/20 05:59:33;;;;;;;19.65;9.98;;;;;;;8.38;58.22;101789.09;5092955;28;20036;-43
2023/04/20 06:01:58;;;;;;;18.52;10.30;;;;;;;8.52;57.93;101786.69;5092893;28;20020;-43
2023/04/20 06:04:23;;;;;;;19.50;10.48;;;;;;;8.69;58.38;101791.22;5091177;28;20024;-42
2023/04/20 06:06:48;;;;;;;19.33;10.82;;;;;;;8.85;58.42;101783.78;5092665;28;20024;-45
2023/04/20 06:09:14;;;;;;;19.08;11.27;;;;;;;9.04;57.71;101778.59;5092742;28;20480;-43
2023/04/20 06:11:40;;;;;;;19.75;10.10;;;;;;;9.28;57.52;101784.44;5092485;28;20062;-43
2023/04/20 06:14:05;;;;;;;19.17;10.57;;;;;;;9.39;56.68;101778.94;5092463;28;20067;-43
2023/04/20 06:16:30;;;;;;;18.17;10.50;;;;;;;9.59;57.02;101787.19;5092827;28;20028;-43
2023/04/20 06:18:55;;;;;;;18.10;10.77;;;;;;;9.70;55.77;101799.09;5092708;28;20167;-43
2023/04/20 06:21:23;;;;;;;19.27;10.93;;;;;;;9.74;56.34;101780.03;5092521;28;20099;-43
2023/04/20 06:23:48;;;;;;;18.83;10.82;;;;;;;9.87;57.25;101790.50;5092587;28;20384;-44
2023/04/20 06:26:13;;;;;;;17.23;10.40;;;;;;;9.90;55.92;101787.19;5092501;28;20028;-44
2023/04/20 06:28:39;;;;;;;18.77;11.10;;;;;;;9.90;54.93;101792.72;5092511;28;20405;-46
2023/04/20 06:31:05;;;;;;;19.48;10.63;;;;;;;9.89;54.59;101782.75;5092350;28;20066;-44
2023/04/20 06:33:30;;;;;;;18.65;10.73;;;;;;;9.93;55.50;101778.34;5091611;28;20024;-44
2023/04/20 06:35:56;;;;;;;19.13;11.40;;;;;;;9.89;54.82;101779.19;5091405;28;20381;-43
2023/04/20 06:38:24;;;;;;;20.63;11.35;;;;;;;9.78;56.21;101754.31;5091373;28;20067;-43
2023/04/20 06:40:50;;;;;;;19.00;10.85;;;;;;;9.97;55.98;101776.66;5091128;28;20055;-43
2023/04/20 06:43:15;;;;;;;19.15;10.93;;;;;;;10.05;54.78;101766.97;5091027;28;20455;-44
2023/04/20 06:45:40;;;;;;;20.33;12.43;;;;;;;9.96;54.61;101750.16;5091622;28;20549;-44
2023/04/20 06:48:06;;;;;;;21.25;11.15;;;;;;;10.20;55.54;101774.41;5092294;28;20433;-44
2023/04/20 06:50:31;;;;;;;18.95;11.07;;;;;;;10.22;54.38;101777.75;5092678;28;20024;-43
2023/04/20 06:52:57;;;;;;;19.35;11.45;;;;;;;10.21;54.76;101770.53;5092463;28;20116;-43
2023/04/20 06:55:22;;;;;;;19.00;11.30;;;;;;;10.24;54.13;101758.94;5092541;28;20173;-43
2023/04/20 06:57:47;;;;;;;19.58;11.52;;;;;;;10.29;54.63;101755.31;5092187;28;20039;-43
2023/04/20 07:00:13;;;;;;;21.05;11.88;;;;;;;10.27;53.77;101750.06;5092561;28;20102;-42
2023/04/20 07:02:56;;;;;;;20.05;11.88;;;;;;;10.38;53.45;101764.72;5091937;28;20043;-43
2023/04/20 07:05:22;;;;;;;21.73;11.60;;;;;;;10.40;53.86;101764.44;5092195;28;20024;-43
2023/04/20 07:07:47;;;;;;;20.48;11.18;;;;;;;10.44;54.58;101762.72;5091956;28;20032;-44
2023/04/20 07:10:13;;;;;;;19.85;11.55;;;;;;;10.43;52.90;101773.00;5091891;28;20405;-42
2023/04/20 07:12:39;;;;;;;18.75;11.50;;;;;;;10.42;53.80;101759.44;5091942;28;20031;-44
2023/04/20 07:15:06;;;;;;;18.42;11.68;;;;;;;10.36;52.95;101761.38;5091957;28;20048;-43
2023/04/20 07:17:32;;;;;;;19.50;11.02;;;;;;;10.30;53.41;101762.47;5091635;28;20027;-42
2023/04/20 07:20:04;;;;;;;19.77;11.35;;;;;;;10.14;53.62;101748.72;5091789;28;20032;-44
2023/04/20 07:22:30;;;;;;;19.10;11.07;;;;;;;10.17;52.93;101774.97;5091861;28;20117;-44
2023/04/20 07:24:56;;;;;;;21.50;11.73;;;;;;;10.09;53.42;101770.84;5090013;28;20032;-43
2023/04/20 07:27:21;;;;;;;19.55;11.43;;;;;;;10.03;53.80;101777.50;5090722;28;20024;-44
2023/04/20 07:29:46;;;;;;;17.55;10.70;;;;;;;9.98;54.14;101767.28;5090531;28;20051;-43
2023/04/20 07:32:11;;;;;;;19.60;11.32;;;;;;;9.98;54.49;101772.78;5088736;28;20325;-43
2023/04/20 07:34:37;;;;;;;19.05;11.60;;;;;;;9.99;54.20;101768.94;5089922;28;20029;-42
2023/04/20 07:37:02;;;;;;;18.98;11.10;;;;;;;10.08;54.15;101762.81;5090046;28;20055;-44
2023/04/20 07:39:29;;;;;;;19.13;10.75;;;;;;;10.12;54.29;101764.75;5088512;28;20052;-43
2023/04/20 07:41:55;;;;;;;19.25;11.00;;;;;;;10.21;53.69;101766.94;5087271;28;20182;-43
2023/04/20 07:44:21;;;;;;;19.55;11.15;;;;;;;10.23;53.78;101759.19;5089885;28;20110;-43
2023/04/20 07:46:47;;;;;;;19.67;11.45;;;;;;;10.24;53.50;101756.16;5089354;28;20082;-44
2023/04/20 07:49:12;;;;;;;19.20;11.77;;;;;;;10.30;53.71;101763.31;5089822;28;20125;-43
2023/04/20 07:51:37;;;;;;;19.13;11.20;;;;;;;10.34;54.22;101755.28;5088415;28;20476;-44
2023/04/20 07:54:03;;;;;;;18.60;10.70;;;;;;;10.38;53.39;101769.41;5092997;28;20024;-43
2023/04/20 07:56:29;;;;;;;19.13;10.68;;;;;;;10.44;53.63;101758.06;5094070;28;20494;-44
2023/04/20 07:58:54;;;;;;;18.13;10.75;;;;;;;10.45;53.39;101756.94;5094207;28;20042;-44
2023/04/20 08:01:24;;;;;;;18.05;11.05;;;;;;;10.51;52.98;101763.28;5092433;28;20034;-46
2023/04/20 08:03:49;;;;;;;17.10;10.48;;;;;;;10.42;53.58;101757.50;5093894;28;20043;-44
2023/04/20 08:06:15;;;;;;;17.35;10.30;;;;;;;10.48;53.27;101766.59;5093890;28;20028;-44
2023/04/20 08:08:40;;;;;;;17.98;10.77;;;;;;;10.42;53.73;101757.50;5093850;28;20035;-45
2023/04/20 08:11:06;;;;;;;18.15;10.65;;;;;;;10.44;53.91;101759.97;5093715;28;20036;-44
2023/04/20 08:13:32;;;;;;;16.88;10.32;;;;;;;10.49;53.52;101762.72;5093849;28;20035;-46
2023/04/20 08:15:57;;;;;;;17.30;10.20;;;;;;;10.52;53.54;101758.56;5093961;28;20036;-43
2023/04/20 08:18:22;;;;;;;18.35;10.43;;;;;;;10.50;54.07;101760.78;5079010;28;20036;-44
2023/04/20 08:20:49;;;;;;;16.35;10.30;;;;;;;10.53;53.88;101755.50;5073397;28;20507;-44
2023/04/20 08:23:15;;;;;;;18.33;10.70;;;;;;;10.56;54.00;101762.44;5087069;28;20032;-44
2023/04/20 08:25:40;;;;;;;17.15;10.30;;;;;;;10.57;54.11;101751.06;5093807;28;20484;-43
2023/04/20 08:28:06;;;;;;;17.00;10.40;;;;;;;10.71;54.25;101739.41;5081674;28;20493;-45
2023/04/20 08:30:31;;;;;;;17.73;10.43;;;;;;;10.81;53.65;101742.09;5073250;28;20078;-44
2023/04/20 08:32:57;;;;;;;18.70;10.23;;;;;;;10.86;53.51;101744.00;5073080;28;20047;-44
2023/04/20 08:35:22;;;;;;;16.40;9.88;;;;;;;11.00;52.99;101738.66;5073246;28;20024;-43
2023/04/20 08:37:48;;;;;;;17.92;9.98;;;;;;;11.09;53.33;101745.25;5081923;28;20389;-43
2023/04/20 08:40:13;;;;;;;18.00;10.13;;;;;;;11.05;53.43;101735.84;5093315;28;20113;-42
2023/04/20 08:42:39;;;;;;;17.73;10.05;;;;;;;11.06;52.98;101741.09;5092011;28;20050;-44
2023/04/20 08:45:05;;;;;;;18.23;10.20;;;;;;;11.09;52.84;101734.19;5093363;28;20036;-43
2023/04/20 08:47:32;;;;;;;17.02;10.13;;;;;;;11.11;52.90;101726.38;5093427;28;20027;-43
2023/04/20 08:49:58;;;;;;;17.05;10.18;;;;;;;11.09;53.02;101723.09;5093184;28;20397;-43
2023/04/20 08:52:24;;;;;;;16.88;9.82;;;;;;;11.14;52.57;101725.81;5093229;28;20028;-43
2023/04/20 08:54:49;;;;;;;17.42;10.07;;;;;;;11.24;52.41;101736.81;5093189;28;20036;-44
2023/04/20 08:57:14;;;;;;;15.52;9.57;;;;;;;11.26;52.89;101733.75;5092926;28;20040;-44
2023/04/20 08:59:40;;;;;;;18.13;10.43;;;;;;;11.19;52.85;101727.72;5093045;28;20028;-43
2023/04/20 09:02:12;;;;;;;18.02;10.50;;;;;;;11.26;53.49;101732.94;5091504;28;20096;-45
2023/04/20 09:04:39;;;;;;;15.60;9.30;;;;;;;11.29;52.45;101727.63;5071696;28;20524;-43
2023/04/20 09:07:06;;;;;;;19.73;10.27;;;;;;;11.30;52.62;101731.22;5073911;28;20039;-44
2023/04/20 09:09:31;;;;;;;16.55;9.85;;;;;;;11.30;52.94;101718.22;5093318;28;20020;-43
2023/04/20 09:12:08;;;;;;;19.30;10.05;;;;;;;11.50;54.42;101716.38;5093397;28;20397;-43
2023/04/20 09:14:43;;;;;;;16.50;9.52;;;;;;;11.71;56.20;101728.91;5072934;28;20043;-43
2023/04/20 09:17:13;;;;;;;17.30;10.07;;;;;;;11.66;54.71;101717.88;5073648;28;20392;-44
2023/04/20 09:19:38;;;;;;;17.92;10.45;;;;;;;11.68;53.33;101723.13;5093116;28;20123;-44
2023/04/20 09:22:05;;;;;;;16.02;10.32;;;;;;;11.78;54.13;101723.03;5092979;28;20182;-45
2023/04/20 09:24:37;;;;;;;18.75;10.43;;;;;;;11.79;52.46;101723.88;5072469;28;20067;-48
2023/04/20 09:27:16;;;;;;;17.67;10.90;;;;;;;11.82;53.37;101724.13;5072728;28;20074;-43
2023/04/20 09:29:42;;;;;;;18.92;10.52;;;;;;;11.75;52.71;101712.56;5072541;28;20116;-42
2023/04/20 09:32:21;;;;;;;18.88;10.40;;;;;;;11.83;54.27;101717.44;5072582;28;20113;-44
2023/04/20 09:34:47;;;;;;;17.08;10.40;;;;;;;11.77;52.62;101723.34;5070960;28;20068;-43
2023/04/20 09:37:14;;;;;;;17.50;10.10;;;;;;;11.65;52.63;101705.16;5072421;28;20052;-42
2023/04/20 09:39:43;;;;;;;17.35;10.30;;;;;;;11.63;52.19;101721.22;5091866;28;20077;-42
2023/04/20 09:42:10;;;;;;;17.00;10.27;;;;;;;11.55;52.47;101714.41;5090730;28;20564;-43
2023/04/20 09:44:37;;;;;;;16.83;10.35;;;;;;;11.35;52.71;101690.47;5091778;28;20024;-43
2023/04/20 09:47:03;;;;;;;17.77;10.38;;;;;;;11.42;52.22;101726.16;5091827;28;20112;-43
2023/04/20 09:49:28;;;;;;;18.77;10.50;;;;;;;11.35;52.67;101712.63;5091648;28;20036;-46
2023/04/20 09:51:54;;;;;;;16.10;10.07;;;;;;;11.37;52.85;101715.94;5081501;28;20056;-42
2023/04/20 09:54:20;;;;;;;17.40;10.40;;;;;;;11.31;53.10;101713.50;5084415;28;20031;-43
2023/04/20 09:56:46;;;;;;;17.73;10.45;;;;;;;11.21;53.58;101704.16;5091804;28;20051;-43
2023/04/20 09:59:12;;;;;;;15.88;10.10;;;;;;;11.13;53.66;101706.72;5091561;28;20058;-45
2023/04/20 10:01:38;;;;;;;19.27;11.85;;;;;;;11.04;54.10;101695.44;5080931;28;20025;-43
2023/04/20 10:04:07;;;;;;;18.00;11.10;;;;;;;10.95;54.30;101689.69;5069849;28;20505;-44
2023/04/20 10:06:34;;;;;;;17.58;10.52;;;;;;;10.94;55.05;101690.81;5071230;28;20116;-44
2023/04/20 10:09:01;;;;;;;17.67;10.55;;;;;;;10.98;54.98;101702.94;5069921;28;20070;-43
2023/04/20 10:11:30;;;;;;;16.63;11.00;;;;;;;11.03;55.14;101700.16;5071119;28;20033;-43
2023/04/20 10:13:57;;;;;;;18.30;10.90;;;;;;;11.00;55.03;101697.13;5083807;28;20435;-43
2023/04/20 10:16:23;;;;;;;19.30;11.25;;;;;;;11.00;55.29;101695.19;5091074;28;20536;-43
2023/04/20 10:18:56;;;;;;;19.38;11.50;;;;;;;10.98;55.71;101696.59;5085906;28;20115;-43
2023/04/20 10:21:21;;;;;;;17.43;11.00;;;;;;;10.99;55.55;101685.22;5090908;28;20044;-43
2023/04/20 10:23:51;;;;;;;18.60;11.38;;;;;;;10.92;56.21;101684.72;5090795;28;20043;-45
2023/04/20 10:26:16;;;;;;;17.35;10.38;;;;;;;11.04;55.74;101696.28;5090916;28;20024;-42
2023/04/20 10:28:43;;;;;;;18.63;10.88;;;;;;;11.13;55.06;101690.94;5090775;28;20098;-45
2023/04/20 10:31:14;;;;;;;19.10;11.40;;;;;;;11.19;54.82;101681.44;5090702;28;20362;-44
2023/04/20 10:33:53;;;;;;;17.02;10.73;;;;;;;11.34;54.17;101688.00;5090787;28;20039;-43
2023/04/20 10:36:22;;;;;;;17.40;10.18;;;;;;;11.42;53.52;101670.72;5090877;28;20032;-43
2023/04/20 10:38:50;;;;;;;18.27;10.15;;;;;;;11.49;53.07;101679.53;5090870;28;20044;-42
2023/04/20 10:41:15;;;;;;;18.10;10.70;;;;;;;11.47;53.04;101679.00;5090592;28;20041;-43
2023/04/20 10:43:42;;;;;;;18.75;10.68;;;;;;;11.52;53.09;101667.06;5089036;28;20052;-43
2023/04/20 10:46:17;;;;;;;17.77;10.57;;;;;;;11.54;52.64;101665.63;5087550;28;20255;-42
2023/04/20 10:48:57;;;;;;;19.55;11.32;;;;;;;11.42;53.24;101667.16;5089123;28;20078;-42
2023/04/20 10:51:24;;;;;;;17.63;10.98;;;;;;;11.51;52.86;101673.72;5091102;28;20140;-42
2023/04/20 10:54:06;;;;;;;19.10;11.90;;;;;;;11.53;52.99;101663.13;5080550;28;20048;-44
2023/04/20 10:56:50;;;;;;;17.58;10.75;;;;;;;11.60;53.19;101657.25;5070270;28;20492;-43
2023/04/20 10:59:21;;;;;;;18.35;10.23;;;;;;;11.68;52.37;101646.38;5088397;28;20055;-44
2023/04/20 11:01:47;;;;;;;18.33;11.15;;;;;;;11.78;52.75;101652.91;5089925;28;20477;-43
2023/04/20 11:04:14;;;;;;;19.13;11.35;;;;;;;11.84;52.79;101647.03;5089534;28;20063;-45
2023/04/20 11:06:40;;;;;;;18.77;10.85;;;;;;;11.89;53.09;101642.53;5090460;28;20042;-43
2023/04/20 11:09:19;;;;;;;17.60;10.48;;;;;;;11.96;52.67;101643.81;5090206;28;20047;-44
2023/04/20 11:11:44;;;;;;;17.67;10.57;;;;;;;12.03;52.35;101635.19;5090539;28;20114;-44